Aviation Digital Data Service (ADDS)

Output produced by TAFs form (1539 UTC 27 March 2015)
found at http://aviationweather.gov/adds/tafs/
 
KLND 271122Z 2712/2812 VRB05KT P6SM SKC 
     FM280300 25008KT P6SM SKC